createdAt,value
2017-08-26T00:00:07.744Z,1018.3
2017-08-26T00:01:16.590Z,1018.28
2017-08-26T00:02:25.435Z,1018.22
2017-08-26T00:03:34.280Z,1018.25
2017-08-26T00:04:43.125Z,1018.22
2017-08-26T00:05:51.971Z,1018.17
2017-08-26T00:07:00.816Z,1018.17
2017-08-26T00:08:09.665Z,1018.2
2017-08-26T00:09:18.509Z,1018.19
2017-08-26T00:10:27.354Z,1018.17
2017-08-26T00:11:36.201Z,1018.18
2017-08-26T00:12:45.049Z,1018.16
2017-08-26T00:13:53.897Z,1018.13
2017-08-26T00:15:02.793Z,1018.06
2017-08-26T00:16:11.637Z,1018.11
2017-08-26T00:17:20.816Z,1018.11
2017-08-26T00:18:29.661Z,1018.03
2017-08-26T00:19:38.506Z,1018.05
2017-08-26T00:20:47.403Z,1018.05
2017-08-26T00:21:56.248Z,1018.07
2017-08-26T00:23:05.097Z,1018.04
2017-08-26T00:24:13.942Z,1018.04
2017-08-26T00:25:22.785Z,1018.06
2017-08-26T00:26:31.781Z,1018.07
2017-08-26T00:27:40.626Z,1018.11
2017-08-26T00:28:49.469Z,1018.11
2017-08-26T00:29:58.315Z,1018.12
2017-08-26T00:31:07.163Z,1018.06
2017-08-26T00:32:16.067Z,1018.05
2017-08-26T00:33:24.913Z,1018
2017-08-26T00:34:33.757Z,1018.06
2017-08-26T00:35:42.605Z,1018
2017-08-26T00:36:51.451Z,1018.02
2017-08-26T00:38:00.396Z,1018
2017-08-26T00:39:09.242Z,1018.05
2017-08-26T00:40:18.097Z,1018.07
2017-08-26T00:41:26.944Z,1018.03
2017-08-26T00:42:35.796Z,1018.04
2017-08-26T00:43:44.839Z,1018.03
2017-08-26T00:44:53.683Z,1018.05
2017-08-26T00:46:02.536Z,1018
2017-08-26T00:47:11.381Z,1018.01
2017-08-26T00:48:20.229Z,1017.96
2017-08-26T00:49:29.076Z,1017.96
2017-08-26T00:50:37.924Z,1017.99
2017-08-26T00:51:46.772Z,1017.95
2017-08-26T00:52:55.617Z,1017.93
2017-08-26T00:54:04.462Z,1017.92
2017-08-26T00:55:13.610Z,1017.94
2017-08-26T00:56:22.457Z,1017.92
2017-08-26T00:57:31.303Z,1017.91
2017-08-26T00:58:40.149Z,1017.94
2017-08-26T00:59:48.994Z,1017.96
2017-08-26T01:00:57.988Z,1017.91
2017-08-26T01:02:06.835Z,1017.91
2017-08-26T01:03:16.013Z,1017.92
2017-08-26T01:04:24.857Z,1017.92
2017-08-26T01:05:33.703Z,1017.87
2017-08-26T01:06:42.850Z,1017.87
2017-08-26T01:07:51.696Z,1017.88
2017-08-26T01:09:00.539Z,1017.87
2017-08-26T01:10:09.388Z,1017.85
2017-08-26T01:11:18.566Z,1017.82
2017-08-26T01:12:27.462Z,1017.89
2017-08-26T01:13:36.311Z,1017.9
2017-08-26T01:14:45.154Z,1017.92
2017-08-26T01:15:54.001Z,1017.89
2017-08-26T01:17:03.183Z,1017.9
2017-08-26T01:18:12.181Z,1017.9
2017-08-26T01:19:21.027Z,1017.96
2017-08-26T01:20:29.875Z,1017.95
2017-08-26T01:21:38.730Z,1017.96
2017-08-26T01:22:47.574Z,1017.96
2017-08-26T01:23:56.571Z,1017.98
2017-08-26T01:25:05.417Z,1017.97
2017-08-26T01:26:14.263Z,1017.99
2017-08-26T01:27:23.441Z,1017.96
2017-08-26T01:28:32.288Z,1018
2017-08-26T01:29:41.617Z,1018.01
2017-08-26T01:30:50.820Z,1018.05
2017-08-26T01:31:59.637Z,1018.1
2017-08-26T01:33:08.817Z,1018.09
2017-08-26T01:34:17.663Z,1018.16
2017-08-26T01:35:26.609Z,1018.2
2017-08-26T01:36:35.454Z,1018.19
2017-08-26T01:37:44.300Z,1018.2
2017-08-26T01:38:53.146Z,1018.2
2017-08-26T01:40:02.325Z,1018.18
2017-08-26T01:41:11.807Z,1018.14
2017-08-26T01:42:20.650Z,1018.07
2017-08-26T01:43:29.496Z,1018.07
2017-08-26T01:44:38.341Z,1018.08
2017-08-26T01:45:47.184Z,1018.06
2017-08-26T01:46:56.129Z,1018.1
2017-08-26T01:48:05.640Z,1018.09
2017-08-26T01:49:14.487Z,1018.09
2017-08-26T01:50:23.331Z,1018.12
2017-08-26T01:51:32.507Z,1018.14
2017-08-26T01:52:41.402Z,1018.13
2017-08-26T01:53:50.246Z,1018.09
2017-08-26T01:54:59.092Z,1018.06
2017-08-26T01:56:07.939Z,1018.07
2017-08-26T01:57:16.787Z,1018.08
2017-08-26T01:58:25.630Z,1018.09
2017-08-26T01:59:34.477Z,1018.07
2017-08-26T02:00:43.328Z,1018.04
2017-08-26T02:01:52.173Z,1018.04
2017-08-26T02:03:01.018Z,1018
2017-08-26T02:04:09.964Z,1018
2017-08-26T02:05:18.810Z,1018.01
2017-08-26T02:06:27.656Z,1017.98
2017-08-26T02:07:36.501Z,1017.97
2017-08-26T02:08:45.347Z,1017.94
2017-08-26T02:09:54.292Z,1017.92
2017-08-26T02:11:03.138Z,1017.93
2017-08-26T02:12:11.984Z,1017.91
2017-08-26T02:13:20.829Z,1017.94
2017-08-26T02:14:29.671Z,1017.91
2017-08-26T02:15:38.668Z,1017.93
2017-08-26T02:16:47.514Z,1017.93
2017-08-26T02:17:56.358Z,1017.91
2017-08-26T02:19:05.567Z,1017.96
2017-08-26T02:20:14.411Z,1017.89
2017-08-26T02:21:23.307Z,1017.9
2017-08-26T02:22:32.153Z,1017.9
2017-08-26T02:23:40.996Z,1017.9
2017-08-26T02:24:49.841Z,1017.83
2017-08-26T02:25:58.686Z,1017.86
2017-08-26T02:27:07.783Z,1017.85
2017-08-26T02:28:16.626Z,1017.83
2017-08-26T02:29:25.471Z,1017.85
2017-08-26T02:30:34.315Z,1017.86
2017-08-26T02:31:43.168Z,1017.82
2017-08-26T02:32:52.057Z,1017.78
2017-08-26T02:34:00.903Z,1017.8
2017-08-26T02:35:09.749Z,1017.85
2017-08-26T02:36:18.596Z,1017.86
2017-08-26T02:37:27.442Z,1017.92
2017-08-26T02:38:36.338Z,1017.9
2017-08-26T02:39:45.186Z,1017.87
2017-08-26T02:40:54.082Z,1017.89
2017-08-26T02:42:02.934Z,1017.86
2017-08-26T02:43:11.782Z,1017.87
2017-08-26T02:44:20.629Z,1017.87
2017-08-26T02:45:29.474Z,1017.81
2017-08-26T02:46:38.320Z,1017.81
2017-08-26T02:48:19.224Z,1017.82
2017-08-26T02:49:28.120Z,1017.81
2017-08-26T02:50:36.967Z,1017.78
2017-08-26T02:51:45.814Z,1017.77
2017-08-26T02:52:54.659Z,1017.77
2017-08-26T02:54:03.504Z,1017.72
2017-08-26T02:55:12.353Z,1017.68
2017-08-26T02:56:21.536Z,1017.63
2017-08-26T02:57:30.382Z,1017.61
2017-08-26T02:58:39.227Z,1017.6
2017-08-26T02:59:48.073Z,1017.55
2017-08-26T03:00:57.252Z,1017.56
2017-08-26T03:02:06.097Z,1017.55
2017-08-26T03:03:14.943Z,1017.55
2017-08-26T03:04:23.788Z,1017.56
2017-08-26T03:05:32.632Z,1017.59
2017-08-26T03:06:41.629Z,1017.57
2017-08-26T03:07:50.476Z,1017.55
2017-08-26T03:08:59.655Z,1017.57
2017-08-26T03:10:08.502Z,1017.54
2017-08-26T03:11:17.347Z,1017.5
2017-08-26T03:12:26.191Z,1017.51
2017-08-26T03:13:35.370Z,1017.47
2017-08-26T03:14:44.216Z,1017.48
2017-08-26T03:15:53.066Z,1017.51
2017-08-26T03:17:01.913Z,1017.47
2017-08-26T03:18:11.060Z,1017.46
2017-08-26T03:19:19.905Z,1017.48
2017-08-26T03:20:28.749Z,1017.47
2017-08-26T03:21:37.596Z,1017.44
2017-08-26T03:22:46.441Z,1017.4
2017-08-26T03:23:55.589Z,1017.45
2017-08-26T03:25:04.435Z,1017.47
2017-08-26T03:26:13.281Z,1017.47
2017-08-26T03:27:22.459Z,1017.48
2017-08-26T03:28:31.304Z,1017.44
2017-08-26T03:29:40.865Z,1017.47
2017-08-26T03:30:49.711Z,1017.49
2017-08-26T03:31:58.559Z,1017.51
2017-08-26T03:33:07.404Z,1017.49
2017-08-26T03:34:16.249Z,1017.46
2017-08-26T03:35:25.096Z,1017.45
2017-08-26T03:36:33.940Z,1017.48
2017-08-26T03:37:42.785Z,1017.45
2017-08-26T03:38:51.631Z,1017.44
2017-08-26T03:40:00.476Z,1017.46
2017-08-26T03:41:09.370Z,1017.46
2017-08-26T03:42:18.213Z,1017.47
2017-08-26T03:43:27.061Z,1017.47
2017-08-26T03:44:35.906Z,1017.49
2017-08-26T03:45:44.751Z,1017.47
2017-08-26T03:46:53.897Z,1017.49
2017-08-26T03:48:02.744Z,1017.49
2017-08-26T03:49:11.591Z,1017.48
2017-08-26T03:50:20.769Z,1017.46
2017-08-26T03:51:29.614Z,1017.5
2017-08-26T03:52:38.992Z,1017.55
2017-08-26T03:53:47.836Z,1017.54
2017-08-26T03:54:56.682Z,1017.59
2017-08-26T03:56:05.528Z,1017.6
2017-08-26T03:57:14.372Z,1017.61
2017-08-26T03:58:23.365Z,1017.59
2017-08-26T03:59:32.210Z,1017.56
2017-08-26T04:00:41.056Z,1017.59
2017-08-26T04:01:49.903Z,1017.58
2017-08-26T04:02:59.415Z,1017.56
2017-08-26T04:04:08.261Z,1017.55
2017-08-26T04:05:17.109Z,1017.52
2017-08-26T04:06:25.954Z,1017.51
2017-08-26T04:07:34.801Z,1017.48
2017-08-26T04:08:43.648Z,1017.51
2017-08-26T04:09:52.923Z,1017.52
2017-08-26T04:11:01.768Z,1017.49
2017-08-26T04:12:10.614Z,1017.46
2017-08-26T04:13:19.460Z,1017.46
2017-08-26T04:14:28.307Z,1017.51
2017-08-26T04:15:37.302Z,1017.52
2017-08-26T04:16:46.148Z,1017.49
2017-08-26T04:17:55.323Z,1017.5
2017-08-26T04:19:04.169Z,1017.5
2017-08-26T04:20:13.348Z,1017.5
2017-08-26T04:21:22.452Z,1017.49
2017-08-26T04:22:31.630Z,1017.5
2017-08-26T04:23:40.476Z,1017.53
2017-08-26T04:24:49.323Z,1017.53
2017-08-26T04:25:58.168Z,1017.56
2017-08-26T04:27:07.162Z,1017.54
2017-08-26T04:28:16.010Z,1017.56
2017-08-26T04:29:24.857Z,1017.51
2017-08-26T04:30:33.703Z,1017.51
2017-08-26T04:31:42.547Z,1017.5
2017-08-26T04:32:51.393Z,1017.46
2017-08-26T04:34:00.570Z,1017.44
2017-08-26T04:35:09.416Z,1017.44
2017-08-26T04:36:18.261Z,1017.43
2017-08-26T04:37:27.109Z,1017.43
2017-08-26T04:38:36.105Z,1017.38
2017-08-26T04:39:44.952Z,1017.41
2017-08-26T04:40:53.798Z,1017.47
2017-08-26T04:42:02.978Z,1017.44
2017-08-26T04:43:11.820Z,1017.47
2017-08-26T04:44:20.816Z,1017.44
2017-08-26T04:45:29.663Z,1017.44
2017-08-26T04:46:38.840Z,1017.49
2017-08-26T04:47:47.685Z,1017.52
2017-08-26T04:48:56.533Z,1017.48
2017-08-26T04:50:05.433Z,1017.52
2017-08-26T04:51:14.278Z,1017.53
2017-08-26T04:52:23.122Z,1017.51
2017-08-26T04:53:31.965Z,1017.52
2017-08-26T04:54:40.809Z,1017.5
2017-08-26T04:55:49.954Z,1017.54
2017-08-26T04:56:58.799Z,1017.49
2017-08-26T04:58:07.643Z,1017.53
2017-08-26T04:59:16.490Z,1017.49
2017-08-26T05:00:25.339Z,1017.53
2017-08-26T05:01:34.239Z,1017.5
2017-08-26T05:02:43.235Z,1017.48
2017-08-26T05:03:52.080Z,1017.41
2017-08-26T05:05:00.934Z,1017.43
2017-08-26T05:06:10.104Z,1017.41
2017-08-26T05:07:18.950Z,1017.4
2017-08-26T05:08:27.795Z,1017.37
2017-08-26T05:09:36.640Z,1017.4
2017-08-26T05:10:45.817Z,1017.41
2017-08-26T05:11:54.714Z,1017.41
2017-08-26T05:13:03.661Z,1017.37
2017-08-26T05:14:12.506Z,1017.47
2017-08-26T05:15:21.353Z,1017.42
2017-08-26T05:16:30.542Z,1017.46
2017-08-26T05:17:39.719Z,1017.43
2017-08-26T05:18:48.896Z,1017.49
2017-08-26T05:19:57.744Z,1017.46
2017-08-26T05:21:06.587Z,1017.4
2017-08-26T05:22:15.433Z,1017.41
2017-08-26T05:23:24.281Z,1017.37
2017-08-26T05:24:33.182Z,1017.41
2017-08-26T05:25:42.030Z,1017.4
2017-08-26T05:26:50.878Z,1017.37
2017-08-26T05:27:59.728Z,1017.42
2017-08-26T05:29:08.572Z,1017.37
2017-08-26T05:30:17.570Z,1017.42
2017-08-26T05:31:26.419Z,1017.38
2017-08-26T05:32:35.266Z,1017.37
2017-08-26T05:33:44.117Z,1017.36
2017-08-26T05:34:52.962Z,1017.38
2017-08-26T05:36:01.961Z,1017.41
2017-08-26T05:37:10.821Z,1017.41
2017-08-26T05:38:19.655Z,1017.46
2017-08-26T05:39:28.500Z,1017.41
2017-08-26T05:40:37.349Z,1017.4
2017-08-26T05:41:46.347Z,1017.41
2017-08-26T05:42:55.194Z,1017.43
2017-08-26T05:44:04.038Z,1017.39
2017-08-26T05:45:13.266Z,1017.39
2017-08-26T05:46:22.111Z,1017.38
2017-08-26T05:47:31.107Z,1017.35
2017-08-26T05:48:39.953Z,1017.27
2017-08-26T05:49:48.802Z,1017.25
2017-08-26T05:50:57.649Z,1017.25
2017-08-26T05:52:06.497Z,1017.3
2017-08-26T05:53:15.727Z,1017.23
2017-08-26T05:54:24.596Z,1017.25
2017-08-26T05:55:33.422Z,1017.22
2017-08-26T05:56:42.268Z,1017.21
2017-08-26T05:57:51.116Z,1017.22
2017-08-26T05:59:00.216Z,1017.21
2017-08-26T06:00:09.394Z,1017.21
2017-08-26T06:01:18.582Z,1017.2
2017-08-26T06:02:27.429Z,1017.18
2017-08-26T06:03:36.278Z,1017.2
2017-08-26T06:04:45.556Z,1017.16
2017-08-26T06:05:54.741Z,1017.18
2017-08-26T06:07:03.639Z,1017.16
2017-08-26T06:08:12.486Z,1017.13
2017-08-26T06:09:21.677Z,1017.11
2017-08-26T06:10:30.672Z,1017.14
2017-08-26T06:11:39.521Z,1017.12
2017-08-26T06:12:48.368Z,1017.11
2017-08-26T06:13:57.217Z,1017.12
2017-08-26T06:15:06.065Z,1017.09
2017-08-26T06:16:15.062Z,1017.02
2017-08-26T06:17:24.244Z,1017.04
2017-08-26T06:18:33.088Z,1017.01
2017-08-26T06:19:41.933Z,1017.02
2017-08-26T06:20:50.781Z,1017.01
2017-08-26T06:21:59.779Z,1016.97
2017-08-26T06:23:08.629Z,1017.01
2017-08-26T06:24:17.805Z,1016.96
2017-08-26T06:25:26.654Z,1016.95
2017-08-26T06:26:35.501Z,1016.93
2017-08-26T06:27:44.398Z,1016.88
2017-08-26T06:28:53.577Z,1016.91
2017-08-26T06:30:02.426Z,1016.86
2017-08-26T06:31:11.275Z,1016.86
2017-08-26T06:32:20.123Z,1016.85
2017-08-26T06:33:28.977Z,1016.82
2017-08-26T06:34:38.156Z,1016.81
2017-08-26T06:35:47.003Z,1016.8
2017-08-26T06:36:55.849Z,1016.79
2017-08-26T06:38:05.034Z,1016.77
2017-08-26T06:39:13.881Z,1016.73
2017-08-26T06:40:22.729Z,1016.72
2017-08-26T06:41:31.581Z,1016.71
2017-08-26T06:42:40.425Z,1016.73
2017-08-26T06:43:49.572Z,1016.7
2017-08-26T06:44:58.419Z,1016.73
2017-08-26T06:46:07.269Z,1016.72
2017-08-26T06:47:16.141Z,1016.68
2017-08-26T06:48:24.988Z,1016.71
2017-08-26T06:49:33.998Z,1016.68
2017-08-26T06:50:42.850Z,1016.71
2017-08-26T06:51:51.709Z,1016.72
2017-08-26T06:53:00.562Z,1016.71
2017-08-26T06:54:09.899Z,1016.65
2017-08-26T06:55:18.748Z,1016.65
2017-08-26T06:56:27.611Z,1016.67
2017-08-26T06:57:36.444Z,1016.66
2017-08-26T06:58:45.293Z,1016.68
2017-08-26T06:59:54.141Z,1016.68
2017-08-26T07:01:02.990Z,1016.69
2017-08-26T07:02:11.850Z,1016.68
2017-08-26T07:03:20.700Z,1016.68
2017-08-26T07:04:29.700Z,1016.68
2017-08-26T07:05:38.548Z,1016.73
2017-08-26T07:06:47.399Z,1016.71
2017-08-26T07:07:56.578Z,1016.71
2017-08-26T07:09:05.425Z,1016.7
2017-08-26T07:10:14.322Z,1016.69
2017-08-26T07:11:23.170Z,1016.66
2017-08-26T07:12:32.020Z,1016.65
2017-08-26T07:13:41.212Z,1016.66
2017-08-26T07:14:50.060Z,1016.63
2017-08-26T07:15:59.385Z,1016.62
2017-08-26T07:17:08.245Z,1016.61
2017-08-26T07:18:17.094Z,1016.61
2017-08-26T07:19:25.947Z,1016.62
2017-08-26T07:20:34.895Z,1016.59
2017-08-26T07:21:44.134Z,1016.57
2017-08-26T07:22:52.990Z,1016.58
2017-08-26T07:24:01.859Z,1016.58
2017-08-26T07:25:10.709Z,1016.62
2017-08-26T07:26:19.559Z,1016.58
2017-08-26T07:27:28.514Z,1016.56
2017-08-26T07:28:37.362Z,1016.59
2017-08-26T07:29:46.210Z,1016.6
2017-08-26T07:30:55.058Z,1016.57
2017-08-26T07:32:03.905Z,1016.6
2017-08-26T07:33:12.752Z,1016.6
2017-08-26T07:34:21.602Z,1016.6
2017-08-26T07:35:30.447Z,1016.63
2017-08-26T07:36:39.297Z,1016.61
2017-08-26T07:37:48.146Z,1016.63
2017-08-26T07:38:57.150Z,1016.59
2017-08-26T07:40:05.992Z,1016.63
2017-08-26T07:41:14.842Z,1016.65
2017-08-26T07:42:24.021Z,1016.64
2017-08-26T07:43:32.870Z,1016.66
2017-08-26T07:44:41.875Z,1016.65
2017-08-26T07:45:50.725Z,1016.67
2017-08-26T07:47:00.243Z,1016.66
2017-08-26T07:48:09.092Z,1016.66
2017-08-26T07:49:17.939Z,1016.64
2017-08-26T07:50:26.941Z,1016.68
2017-08-26T07:51:35.791Z,1016.67
2017-08-26T07:52:44.640Z,1016.68
2017-08-26T07:53:53.486Z,1016.68
2017-08-26T07:55:02.389Z,1016.68
2017-08-26T07:56:11.388Z,1016.68
2017-08-26T07:57:20.241Z,1016.69
2017-08-26T07:58:29.100Z,1016.69
2017-08-26T07:59:37.942Z,1016.72
2017-08-26T08:00:46.789Z,1016.77
2017-08-26T08:01:55.951Z,1016.73
2017-08-26T08:03:04.789Z,1016.73
2017-08-26T08:04:13.638Z,1016.75
2017-08-26T08:05:22.489Z,1016.76
2017-08-26T08:06:31.667Z,1016.74
2017-08-26T08:07:40.817Z,1016.73
2017-08-26T08:08:49.664Z,1016.74
2017-08-26T08:09:58.514Z,1016.75
2017-08-26T08:11:07.361Z,1016.75
2017-08-26T08:12:16.214Z,1016.75
2017-08-26T08:13:25.214Z,1016.77
2017-08-26T08:14:34.064Z,1016.72
2017-08-26T08:15:42.913Z,1016.76
2017-08-26T08:16:51.786Z,1016.71
2017-08-26T08:18:00.614Z,1016.71
2017-08-26T08:19:09.763Z,1016.71
2017-08-26T08:20:18.611Z,1016.7
2017-08-26T08:21:27.460Z,1016.65
2017-08-26T08:22:36.312Z,1016.63
2017-08-26T08:23:45.162Z,1016.63
2017-08-26T08:24:54.113Z,1016.6
2017-08-26T08:26:02.966Z,1016.65
2017-08-26T08:27:11.819Z,1016.68
2017-08-26T08:28:20.669Z,1016.66
2017-08-26T08:29:29.519Z,1016.7
2017-08-26T08:30:38.417Z,1016.66
2017-08-26T08:31:47.267Z,1016.69
2017-08-26T08:32:56.119Z,1016.68
2017-08-26T08:34:05.305Z,1016.7
2017-08-26T08:35:14.164Z,1016.69
2017-08-26T08:36:23.013Z,1016.68
2017-08-26T08:37:31.862Z,1016.74
2017-08-26T08:38:40.710Z,1016.7
2017-08-26T08:39:49.564Z,1016.65
2017-08-26T08:40:58.416Z,1016.6
2017-08-26T08:42:07.267Z,1016.61
2017-08-26T08:43:16.117Z,1016.6
2017-08-26T08:44:24.966Z,1016.59
2017-08-26T08:45:33.813Z,1016.6
2017-08-26T08:46:42.669Z,1016.58
2017-08-26T08:47:51.853Z,1016.62
2017-08-26T08:49:00.717Z,1016.56
2017-08-26T08:50:09.582Z,1016.61
2017-08-26T08:51:18.441Z,1016.59
2017-08-26T08:52:27.302Z,1016.61
2017-08-26T08:53:36.167Z,1016.6
2017-08-26T08:54:45.361Z,1016.58
2017-08-26T08:55:54.224Z,1016.55
2017-08-26T08:57:03.085Z,1016.58
2017-08-26T08:58:12.280Z,1016.55
2017-08-26T08:59:21.148Z,1016.55
2017-08-26T09:00:30.007Z,1016.55
2017-08-26T09:01:39.406Z,1016.55
2017-08-26T09:02:48.256Z,1016.49
2017-08-26T09:03:57.108Z,1016.52
2017-08-26T09:05:05.962Z,1016.52
2017-08-26T09:06:15.149Z,1016.53
2017-08-26T09:07:23.997Z,1016.51
2017-08-26T09:08:32.848Z,1016.52
2017-08-26T09:09:41.698Z,1016.44
2017-08-26T09:10:50.549Z,1016.45
2017-08-26T09:11:59.400Z,1016.43
2017-08-26T09:13:08.401Z,1016.42
2017-08-26T09:14:17.253Z,1016.45
2017-08-26T09:15:26.101Z,1016.4
2017-08-26T09:16:34.952Z,1016.4
2017-08-26T09:17:43.804Z,1016.38
2017-08-26T09:18:52.804Z,1016.4
2017-08-26T09:20:01.995Z,1016.42
2017-08-26T09:21:10.848Z,1016.42
2017-08-26T09:22:19.702Z,1016.4
2017-08-26T09:23:28.550Z,1016.4
2017-08-26T09:24:37.503Z,1016.37
2017-08-26T09:25:46.352Z,1016.32
2017-08-26T09:26:55.205Z,1016.35
2017-08-26T09:28:04.076Z,1016.37
2017-08-26T09:29:13.285Z,1016.46
2017-08-26T09:30:22.390Z,1016.43
2017-08-26T09:31:31.241Z,1016.46
2017-08-26T09:32:40.096Z,1016.39
2017-08-26T09:33:48.950Z,1016.44
2017-08-26T09:34:57.803Z,1016.41
2017-08-26T09:36:06.656Z,1016.4
2017-08-26T09:37:15.509Z,1016.42
2017-08-26T09:38:24.360Z,1016.42
2017-08-26T09:39:33.214Z,1016.43
2017-08-26T09:40:42.398Z,1016.45
2017-08-26T09:41:51.550Z,1016.45
2017-08-26T09:43:00.405Z,1016.43
2017-08-26T09:44:09.259Z,1016.41
2017-08-26T09:45:18.113Z,1016.39
2017-08-26T09:46:27.095Z,1016.39
2017-08-26T09:47:35.974Z,1016.43
2017-08-26T09:48:45.222Z,1016.38
2017-08-26T09:49:54.237Z,1016.39
2017-08-26T09:51:03.359Z,1016.31
2017-08-26T09:52:12.221Z,1016.3
2017-08-26T09:53:21.431Z,1016.28
2017-08-26T09:54:30.286Z,1016.29
2017-08-26T09:55:39.655Z,1016.28
2017-08-26T09:56:49.690Z,1016.25
2017-08-26T09:57:59.847Z,1016.23
2017-08-26T09:59:10.005Z,1016.22
2017-08-26T10:00:19.118Z,1016.21
2017-08-26T10:01:28.928Z,1016.25
2017-08-26T10:02:37.803Z,1016.23
2017-08-26T10:03:46.659Z,1016.26
2017-08-26T10:04:55.511Z,1016.3
2017-08-26T10:06:04.362Z,1016.27
2017-08-26T10:07:13.216Z,1016.25
2017-08-26T10:08:22.492Z,1016.26
2017-08-26T10:09:31.346Z,1016.27
2017-08-26T10:10:40.201Z,1016.24
2017-08-26T10:11:49.054Z,1016.24
2017-08-26T10:12:57.975Z,1016.22
2017-08-26T10:14:06.826Z,1016.22
2017-08-26T10:15:15.676Z,1016.2
2017-08-26T10:16:24.655Z,1016.17
2017-08-26T10:17:33.515Z,1016.19
2017-08-26T10:18:42.850Z,1016.17
2017-08-26T10:19:51.704Z,1016.18
2017-08-26T10:21:00.556Z,1016.19
2017-08-26T10:22:09.409Z,1016.14
2017-08-26T10:23:18.260Z,1016.22
2017-08-26T10:24:27.262Z,1016.17
2017-08-26T10:25:36.117Z,1016.13
2017-08-26T10:26:44.971Z,1016.14
2017-08-26T10:27:53.826Z,1016.14
2017-08-26T10:29:02.696Z,1016.1
2017-08-26T10:30:11.699Z,1016.13
2017-08-26T10:31:20.555Z,1016.11
2017-08-26T10:32:29.411Z,1016.11
2017-08-26T10:33:38.267Z,1016.12
2017-08-26T10:34:47.123Z,1016.08
2017-08-26T10:35:56.154Z,1016.1
2017-08-26T10:37:05.063Z,1016.07
2017-08-26T10:38:13.921Z,1016.09
2017-08-26T10:39:22.819Z,1016.1
2017-08-26T10:40:31.673Z,1016.1
2017-08-26T10:41:40.629Z,1016.09
2017-08-26T10:42:49.483Z,1016.09
2017-08-26T10:43:58.337Z,1016.09
2017-08-26T10:45:07.192Z,1016.06
2017-08-26T10:46:16.046Z,1016.03
2017-08-26T10:47:25.052Z,1015.99
2017-08-26T10:48:33.904Z,1015.98
2017-08-26T10:49:42.760Z,1015.95
2017-08-26T10:50:51.615Z,1015.91
2017-08-26T10:52:00.469Z,1015.93
2017-08-26T10:53:09.324Z,1015.92
2017-08-26T10:54:18.180Z,1015.93
2017-08-26T10:55:27.033Z,1015.91
2017-08-26T10:56:35.888Z,1015.89
2017-08-26T10:57:44.742Z,1015.93
2017-08-26T10:58:53.898Z,1015.95
2017-08-26T11:00:02.753Z,1015.91
2017-08-26T11:01:11.943Z,1015.87
2017-08-26T11:02:20.797Z,1015.83
2017-08-26T11:03:29.650Z,1015.86
2017-08-26T11:04:38.652Z,1015.87
2017-08-26T11:05:47.842Z,1015.87
2017-08-26T11:06:56.698Z,1015.88
2017-08-26T11:08:05.551Z,1015.87
2017-08-26T11:09:14.409Z,1015.8
2017-08-26T11:10:23.417Z,1015.83
2017-08-26T11:11:32.271Z,1015.83
2017-08-26T11:12:41.122Z,1015.83
2017-08-26T11:13:50.003Z,1015.85
2017-08-26T11:14:58.932Z,1015.87
2017-08-26T11:16:07.937Z,1015.88
2017-08-26T11:17:16.791Z,1015.82
2017-08-26T11:18:25.643Z,1015.85
2017-08-26T11:19:34.495Z,1015.85
2017-08-26T11:20:43.682Z,1015.8
2017-08-26T11:21:52.685Z,1015.81
2017-08-26T11:23:01.540Z,1015.81
2017-08-26T11:24:10.392Z,1015.81
2017-08-26T11:25:19.249Z,1015.78
2017-08-26T11:26:28.104Z,1015.76
2017-08-26T11:27:37.009Z,1015.77
2017-08-26T11:28:45.863Z,1015.77
2017-08-26T11:29:54.723Z,1015.75
2017-08-26T11:31:03.579Z,1015.7
2017-08-26T11:32:12.435Z,1015.72
2017-08-26T11:33:21.343Z,1015.64
2017-08-26T11:34:30.254Z,1015.59
2017-08-26T11:35:39.111Z,1015.59
2017-08-26T11:36:47.965Z,1015.57
2017-08-26T11:37:56.820Z,1015.57
2017-08-26T11:39:05.726Z,1015.54
2017-08-26T11:40:14.580Z,1015.53
2017-08-26T11:41:23.435Z,1015.54
2017-08-26T11:42:32.289Z,1015.57
2017-08-26T11:43:41.144Z,1015.56
2017-08-26T11:44:50.151Z,1015.58
2017-08-26T11:45:59.005Z,1015.59
2017-08-26T11:47:07.861Z,1015.6
2017-08-26T11:48:16.714Z,1015.54
2017-08-26T11:49:25.590Z,1015.49
2017-08-26T11:50:34.909Z,1015.46
2017-08-26T11:51:43.767Z,1015.44
2017-08-26T11:52:52.954Z,1015.45
2017-08-26T11:54:01.809Z,1015.44
2017-08-26T11:55:10.667Z,1015.4
2017-08-26T11:56:19.669Z,1015.39
2017-08-26T11:57:28.522Z,1015.36
2017-08-26T11:58:37.379Z,1015.34
2017-08-26T11:59:46.565Z,1015.31
2017-08-26T12:00:55.420Z,1015.29
2017-08-26T12:02:04.575Z,1015.33
2017-08-26T12:03:13.429Z,1015.26
2017-08-26T12:04:22.301Z,1015.28
2017-08-26T12:05:31.157Z,1015.28
2017-08-26T12:06:40.015Z,1015.29
2017-08-26T12:07:49.024Z,1015.27
2017-08-26T12:08:57.912Z,1015.33
2017-08-26T12:10:06.757Z,1015.35
2017-08-26T12:11:15.614Z,1015.32
2017-08-26T12:12:24.469Z,1015.31
2017-08-26T12:13:33.657Z,1015.28
2017-08-26T12:14:42.516Z,1015.32
2017-08-26T12:15:51.700Z,1015.28
2017-08-26T12:17:00.557Z,1015.31
2017-08-26T12:18:09.419Z,1015.3
2017-08-26T12:19:18.433Z,1015.34
2017-08-26T12:20:27.626Z,1015.34
2017-08-26T12:21:36.481Z,1015.34
2017-08-26T12:22:45.341Z,1015.32
2017-08-26T12:23:54.197Z,1015.31
2017-08-26T12:25:03.217Z,1015.26
2017-08-26T12:26:12.086Z,1015.19
2017-08-26T12:27:20.945Z,1015.22
2017-08-26T12:28:29.869Z,1015.24
2017-08-26T12:29:38.725Z,1015.25
2017-08-26T12:30:47.888Z,1015.27
2017-08-26T12:31:56.744Z,1015.24
2017-08-26T12:33:05.601Z,1015.22
2017-08-26T12:34:14.461Z,1015.18
2017-08-26T12:35:23.317Z,1015.18
2017-08-26T12:36:32.172Z,1015.17
2017-08-26T12:37:41.027Z,1015.17
2017-08-26T12:38:49.884Z,1015.15
2017-08-26T12:39:58.743Z,1015.14
2017-08-26T12:41:07.600Z,1015.18
2017-08-26T12:42:16.603Z,1015.16
2017-08-26T12:43:25.456Z,1015.2
2017-08-26T12:44:34.311Z,1015.17
2017-08-26T12:45:43.165Z,1015.21
2017-08-26T12:46:52.019Z,1015.22
2017-08-26T12:48:00.972Z,1015.2
2017-08-26T12:49:09.829Z,1015.2
2017-08-26T12:50:18.678Z,1015.16
2017-08-26T12:51:27.532Z,1015.17
2017-08-26T12:52:36.717Z,1015.17
2017-08-26T12:53:45.824Z,1015.18
2017-08-26T12:54:54.672Z,1015.19
2017-08-26T12:56:03.527Z,1015.17
2017-08-26T12:57:12.382Z,1015.18
2017-08-26T12:58:21.236Z,1015.18
2017-08-26T12:59:30.341Z,1015.21
2017-08-26T13:00:39.196Z,1015.21
2017-08-26T13:01:48.051Z,1015.27
2017-08-26T13:02:56.906Z,1015.26
2017-08-26T13:04:05.762Z,1015.23
2017-08-26T13:05:14.765Z,1015.25
2017-08-26T13:06:23.618Z,1015.26
2017-08-26T13:07:32.470Z,1015.25
2017-08-26T13:08:41.323Z,1015.27
2017-08-26T13:09:50.177Z,1015.26
2017-08-26T13:10:59.335Z,1015.31
2017-08-26T13:12:08.522Z,1015.32
2017-08-26T13:13:17.375Z,1015.31
2017-08-26T13:14:26.230Z,1015.25
2017-08-26T13:15:35.424Z,1015.31
2017-08-26T13:16:44.479Z,1015.29
2017-08-26T13:17:53.331Z,1015.28
2017-08-26T13:19:02.186Z,1015.28
2017-08-26T13:20:11.375Z,1015.28
2017-08-26T13:21:20.233Z,1015.26
2017-08-26T13:22:29.189Z,1015.27
2017-08-26T13:23:38.044Z,1015.28
2017-08-26T13:24:46.898Z,1015.24
2017-08-26T13:25:55.755Z,1015.27
2017-08-26T13:27:04.611Z,1015.27
2017-08-26T13:28:13.717Z,1015.27
2017-08-26T13:29:22.573Z,1015.28
2017-08-26T13:30:31.429Z,1015.25
2017-08-26T13:31:40.285Z,1015.24
2017-08-26T13:32:49.141Z,1015.21
2017-08-26T13:33:58.299Z,1015.13
2017-08-26T13:35:07.157Z,1015.16
2017-08-26T13:36:16.014Z,1015.14
2017-08-26T13:37:24.869Z,1015.11
2017-08-26T13:38:33.725Z,1015.11
2017-08-26T13:39:42.734Z,1015.09
2017-08-26T13:40:51.592Z,1015.06
2017-08-26T13:42:00.448Z,1015.03
2017-08-26T13:43:09.301Z,1015.07
2017-08-26T13:44:18.157Z,1015.04
2017-08-26T13:45:27.015Z,1015.05
2017-08-26T13:46:35.871Z,1015.06
2017-08-26T13:47:44.731Z,1015
2017-08-26T13:48:53.586Z,1014.99
2017-08-26T13:50:02.443Z,1014.99
2017-08-26T13:51:11.403Z,1015.01
2017-08-26T13:52:20.258Z,1014.96
2017-08-26T13:53:29.117Z,1014.96
2017-08-26T13:54:37.972Z,1014.93
2017-08-26T13:55:46.829Z,1015.01
2017-08-26T13:56:55.836Z,1014.99